createdAt,value
2023-07-05T00:01:17.818Z,100243.38
2023-07-05T00:03:45.887Z,100228.91
2023-07-05T00:06:14.538Z,100216.09
2023-07-05T00:08:42.752Z,100199.69
2023-07-05T00:11:11.877Z,100199.69
2023-07-05T00:13:39.936Z,100206.22
2023-07-05T00:16:10.644Z,100198.88
2023-07-05T00:18:38.880Z,100184.38
2023-07-05T00:21:07.971Z,100192.59
2023-07-05T00:23:37.388Z,100184.38
2023-07-05T00:26:05.429Z,100183.31
2023-07-05T00:28:34.323Z,100172.66
2023-07-05T00:31:02.325Z,100168.00
2023-07-05T00:33:32.405Z,100159.81
2023-07-05T00:36:00.414Z,100168.84
2023-07-05T00:38:28.655Z,100161.72
2023-07-05T00:40:56.614Z,100153.53
2023-07-05T00:43:24.839Z,100150.81
2023-07-05T00:45:57.986Z,100149.72
2023-07-05T00:48:29.981Z,100145.34
2023-07-05T00:50:59.983Z,100141.53
2023-07-05T00:53:28.012Z,100133.00
2023-07-05T00:55:58.087Z,100132.53
2023-07-05T00:58:26.430Z,100139.88
2023-07-05T01:00:54.390Z,100114.47
2023-07-05T01:03:22.951Z,100121.84
2023-07-05T01:05:55.492Z,100102.72
2023-07-05T01:08:25.623Z,100100.84
2023-07-05T01:10:57.993Z,100104.38
2023-07-05T01:13:29.156Z,100101.66
2023-07-05T01:15:59.737Z,100107.13
2023-07-05T01:18:31.083Z,100098.94
2023-07-05T01:21:01.965Z,100105.22
2023-07-05T01:23:56.777Z,100094.28
2023-07-05T01:26:55.326Z,100097.03
2023-07-05T01:29:48.296Z,100101.66
2023-07-05T01:32:18.275Z,100098.09
2023-07-05T01:34:48.833Z,100089.91
2023-07-05T01:37:31.684Z,100078.16
2023-07-05T01:39:59.715Z,100076.25
2023-07-05T01:42:31.193Z,100066.16
2023-07-05T01:44:59.086Z,100049.78
2023-07-05T01:47:31.605Z,100045.41
2023-07-05T01:50:04.303Z,100043.50
2023-07-05T01:52:35.790Z,100043.50
2023-07-05T01:55:08.013Z,100028.16
2023-07-05T01:57:37.989Z,100032.59
2023-07-05T02:00:09.234Z,100034.25
2023-07-05T02:02:39.969Z,100026.28
2023-07-05T02:05:09.251Z,100031.50
2023-07-05T02:07:37.620Z,100023.56
2023-07-05T02:10:06.031Z,100020.84
2023-07-05T02:12:34.044Z,100015.38
2023-07-05T02:15:02.018Z,100006.34
2023-07-05T02:17:30.598Z,100006.34
2023-07-05T02:20:00.056Z,100004.47
2023-07-05T02:22:28.068Z,99953.97
2023-07-05T02:24:56.741Z,100007.19
2023-07-05T02:27:25.011Z,100008.84
2023-07-05T02:29:53.215Z,100008.00
2023-07-05T02:32:22.035Z,100013.47
2023-07-05T02:34:50.110Z,99999.81
2023-07-05T02:37:19.789Z,100017.84
2023-07-05T02:39:47.968Z,100020.59
2023-07-05T02:42:16.032Z,100016.19
2023-07-05T02:44:44.075Z,100007.19
2023-07-05T02:47:12.415Z,100000.91
2023-07-05T02:49:40.357Z,100008.84
2023-07-05T02:52:08.641Z,100016.19
2023-07-05T02:54:37.977Z,100015.38
2023-07-05T02:57:06.758Z,100014.31
2023-07-05T02:59:34.777Z,100017.03
2023-07-05T03:02:02.839Z,100028.78
2023-07-05T03:04:30.969Z,100029.84
2023-07-05T03:06:59.041Z,100031.75
2023-07-05T03:09:27.333Z,100035.31
2023-07-05T03:11:56.688Z,100048.97
2023-07-05T03:14:24.867Z,100052.53
2023-07-05T03:16:52.967Z,100071.38
2023-07-05T03:19:21.244Z,100069.72
2023-07-05T03:21:49.602Z,100085.28
2023-07-05T03:24:17.602Z,100098.09
2023-07-05T03:26:45.588Z,100107.13
2023-07-05T03:29:15.312Z,100107.38
2023-07-05T03:31:43.375Z,100111.75
2023-07-05T03:34:11.494Z,100108.38
2023-07-05T03:36:39.531Z,100130.88
2023-07-05T03:39:07.570Z,100138.22
2023-07-05T03:41:35.550Z,100143.94
2023-07-05T03:44:03.564Z,100149.16
2023-07-05T03:46:33.025Z,100160.06
2023-07-05T03:49:01.331Z,100166.34
2023-07-05T03:51:29.320Z,100174.78
2023-07-05T03:53:57.883Z,100182.72
2023-07-05T03:56:25.874Z,100187.38
2023-07-05T03:58:54.134Z,100192.81
2023-07-05T04:01:23.672Z,100195.56
2023-07-05T04:03:55.051Z,100200.19
2023-07-05T04:06:23.424Z,100204.56
2023-07-05T04:08:51.670Z,100201.84
2023-07-05T04:11:19.759Z,100206.22
2023-07-05T04:13:47.922Z,100206.22
2023-07-05T04:16:16.921Z,100211.69
2023-07-05T04:18:45.808Z,100210.88
2023-07-05T04:21:15.231Z,100213.59
2023-07-05T04:23:43.285Z,100217.97
2023-07-05T04:26:12.322Z,100226.19
2023-07-05T04:28:41.373Z,100228.91
2023-07-05T04:31:13.522Z,100239.00
2023-07-05T04:33:41.496Z,100241.72
2023-07-05T04:36:23.666Z,100241.72
2023-07-05T04:38:55.897Z,100237.09
2023-07-05T04:41:23.838Z,100233.53
2023-07-05T04:43:52.875Z,100244.47
2023-07-05T04:46:21.253Z,100243.38
2023-07-05T04:48:49.591Z,100253.47
2023-07-05T04:51:17.599Z,100245.28
2023-07-05T04:53:45.653Z,100242.56
2023-07-05T04:56:15.519Z,100237.34
2023-07-05T04:58:43.816Z,100234.38
2023-07-05T05:01:14.532Z,100237.94
2023-07-05T05:03:43.005Z,100236.00
2023-07-05T05:06:10.982Z,100236.00
2023-07-05T05:08:39.270Z,100233.53
2023-07-05T05:11:07.353Z,100239.00
2023-07-05T05:13:37.333Z,100228.06
2023-07-05T05:16:05.706Z,100241.72
2023-07-05T05:18:35.313Z,100252.38
2023-07-05T05:21:03.395Z,100247.19
2023-07-05T05:23:31.630Z,100248.84
2023-07-05T05:25:59.599Z,100257.03
2023-07-05T05:28:27.951Z,100262.16
2023-07-05T05:31:04.496Z,100262.75
2023-07-05T05:33:32.483Z,100270.94
2023-07-05T05:36:00.421Z,100275.31
2023-07-05T05:38:28.670Z,100269.03
2023-07-05T05:41:02.294Z,100275.31
2023-07-05T05:43:30.303Z,100268.19
2023-07-05T05:45:58.377Z,100274.50
2023-07-05T05:48:28.350Z,100277.22
2023-07-05T05:50:56.440Z,100279.94
2023-07-05T05:53:24.593Z,100290.88
2023-07-05T05:55:52.529Z,100280.78
2023-07-05T05:58:20.773Z,100288.38
2023-07-05T06:00:48.882Z,100281.84
2023-07-05T06:03:16.921Z,100290.03
2023-07-05T06:05:46.419Z,100295.75
2023-07-05T06:08:14.342Z,100302.03
2023-07-05T06:10:42.504Z,100295.50
2023-07-05T06:13:10.509Z,100311.88
2023-07-05T06:15:38.522Z,100311.88
2023-07-05T06:18:06.881Z,100315.44
2023-07-05T06:20:34.973Z,100322.81
2023-07-05T06:23:04.648Z,100320.06
2023-07-05T06:25:35.328Z,100320.06
2023-07-05T06:28:03.335Z,100331.25
2023-07-05T06:30:31.388Z,100331.81
2023-07-05T06:32:59.420Z,100327.44
2023-07-05T06:35:27.330Z,100330.16
2023-07-05T06:37:55.555Z,100328.50
2023-07-05T06:40:24.962Z,100334.78
2023-07-05T06:42:52.861Z,100341.09
2023-07-05T06:45:20.802Z,100338.34
2023-07-05T06:47:51.317Z,100330.16
2023-07-05T06:50:19.679Z,100333.97
2023-07-05T06:52:47.637Z,100338.34
2023-07-05T06:55:15.844Z,100353.91
2023-07-05T06:57:45.196Z,100364.84
2023-07-05T07:00:14.785Z,100364.84
2023-07-05T07:02:42.887Z,100363.75
2023-07-05T07:05:12.891Z,100373.84
2023-07-05T07:07:41.241Z,100371.13
2023-07-05T07:10:09.913Z,100377.66
2023-07-05T07:12:37.879Z,100371.13
2023-07-05T07:15:09.428Z,100380.38
2023-07-05T07:17:37.767Z,100377.41
2023-07-05T07:20:06.991Z,100376.81
2023-07-05T07:22:35.041Z,100375.75
2023-07-05T07:25:04.238Z,100365.66
2023-07-05T07:27:32.401Z,100370.28
2023-07-05T07:30:00.391Z,100374.91
2023-07-05T07:32:29.739Z,100378.47
2023-07-05T07:34:57.769Z,100378.72
2023-07-05T07:37:26.021Z,100382.28
2023-07-05T07:39:54.007Z,100390.47
2023-07-05T07:42:22.480Z,100395.69
2023-07-05T07:44:50.428Z,100387.19
2023-07-05T07:47:18.713Z,100399.50
2023-07-05T07:49:48.030Z,100403.06
2023-07-05T07:52:16.979Z,100401.16
2023-07-05T07:54:44.960Z,100404.94
2023-07-05T07:57:13.200Z,100417.53
2023-07-05T07:59:43.130Z,100418.59
2023-07-05T08:02:14.695Z,100424.91
2023-07-05T08:04:45.043Z,100427.63
2023-07-05T08:07:15.547Z,100436.88
2023-07-05T08:09:43.553Z,100436.66
2023-07-05T08:12:11.982Z,100439.38
2023-07-05T08:14:40.006Z,100448.41
2023-07-05T08:17:08.246Z,100454.69
2023-07-05T08:19:36.201Z,100450.06
2023-07-05T08:22:04.926Z,100446.50
2023-07-05T08:24:34.582Z,100448.16
2023-07-05T08:27:02.561Z,100445.44
2023-07-05T08:29:30.897Z,100450.06
2023-07-05T08:31:58.928Z,100451.38
2023-07-05T08:34:26.966Z,100457.41
2023-07-05T08:36:54.938Z,100457.16
2023-07-05T08:39:23.208Z,100461.81
2023-07-05T08:42:17.942Z,100454.41
2023-07-05T08:44:55.605Z,100476.28
2023-07-05T08:47:26.610Z,100471.06
2023-07-05T08:50:08.439Z,100472.16
2023-07-05T08:52:43.016Z,100317.88
2023-07-05T08:55:14.777Z,100483.06
2023-07-05T08:57:48.869Z,100475.69
2023-07-05T09:00:18.251Z,100479.28
2023-07-05T09:02:46.293Z,100482.22
2023-07-05T09:05:17.827Z,100488.53
2023-07-05T09:07:52.486Z,100477.97
2023-07-05T09:10:22.796Z,100497.78
2023-07-05T09:12:54.611Z,100497.78
2023-07-05T09:15:24.533Z,100490.00
2023-07-05T09:17:54.800Z,100505.06
2023-07-05T09:20:41.762Z,100503.16
2023-07-05T09:23:13.666Z,100518.78
2023-07-05T09:25:54.602Z,100524.25
2023-07-05T09:28:29.457Z,100525.09
2023-07-05T09:30:58.421Z,100520.88
2023-07-05T09:33:30.149Z,100535.19
2023-07-05T09:35:58.146Z,100528.88
2023-07-05T09:38:30.342Z,100537.91
2023-07-05T09:41:02.261Z,100553.47
2023-07-05T09:43:32.913Z,100543.38
2023-07-05T09:46:01.297Z,100545.25
2023-07-05T09:48:29.603Z,100553.47
2023-07-05T09:51:04.643Z,100540.63
2023-07-05T09:53:38.242Z,100540.91
2023-07-05T09:56:07.173Z,100548.25
2023-07-05T09:58:36.950Z,100549.09
2023-07-05T10:01:05.993Z,100569.84
2023-07-05T10:03:37.786Z,100557.03
2023-07-05T10:06:09.766Z,100576.13
2023-07-05T10:08:45.745Z,100569.84
2023-07-05T10:11:24.321Z,100558.09
2023-07-05T10:14:15.117Z,100546.84
2023-07-05T10:16:52.149Z,100574.47
2023-07-05T10:19:33.243Z,100557.28
2023-07-05T10:22:07.493Z,100574.47
2023-07-05T10:24:44.627Z,100570.94
2023-07-05T10:27:22.856Z,100574.47
2023-07-05T10:29:52.968Z,100555.75
2023-07-05T10:32:21.164Z,100600.97
2023-07-05T10:34:51.025Z,100583.50
2023-07-05T10:37:29.191Z,100594.69
2023-07-05T10:39:57.416Z,100597.41
2023-07-05T10:42:26.134Z,100612.69
2023-07-05T10:44:55.489Z,100602.59
2023-07-05T10:47:23.759Z,100598.25
2023-07-05T10:49:52.973Z,100602.88
2023-07-05T10:52:21.044Z,100608.06
2023-07-05T10:54:51.566Z,100604.50
2023-07-05T10:57:22.390Z,100609.97
2023-07-05T10:59:53.277Z,100615.44
2023-07-05T11:02:29.888Z,100598.47
2023-07-05T11:04:57.920Z,100615.19
2023-07-05T11:07:26.217Z,100611.63
2023-07-05T11:09:54.238Z,100607.00
2023-07-05T11:12:24.232Z,100604.88
2023-07-05T11:14:52.320Z,100612.00
2023-07-05T11:17:28.282Z,100620.97
2023-07-05T11:19:56.230Z,100617.44
2023-07-05T11:22:44.313Z,100623.72
2023-07-05T11:25:13.834Z,100627.53
2023-07-05T11:27:52.716Z,100625.66
2023-07-05T11:30:48.036Z,100628.59
2023-07-05T11:33:21.847Z,100634.06
2023-07-05T11:35:51.928Z,100621.38
2023-07-05T11:39:02.477Z,100626.13
2023-07-05T11:41:32.085Z,100634.31
2023-07-05T11:44:02.403Z,100639.75
2023-07-05T11:46:41.081Z,100648.78
2023-07-05T11:49:38.992Z,100638.69
2023-07-05T11:52:12.518Z,100622.94
2023-07-05T11:54:57.513Z,100622.44
2023-07-05T11:57:25.467Z,100622.31
2023-07-05T12:00:00.372Z,100638.69
2023-07-05T12:02:40.733Z,100645.00
2023-07-05T12:05:12.987Z,100636.81
2023-07-05T12:07:40.942Z,100648.56
2023-07-05T12:10:09.807Z,100650.44
2023-07-05T12:12:41.167Z,100659.47
2023-07-05T12:15:12.663Z,100664.94
2023-07-05T12:17:40.937Z,100655.69
2023-07-05T12:20:22.977Z,100628.72
2023-07-05T12:22:50.928Z,100661.94
2023-07-05T12:25:19.088Z,100659.22
2023-07-05T12:27:47.070Z,100654.59
2023-07-05T12:30:19.528Z,100656.47
2023-07-05T12:32:50.264Z,100656.47
2023-07-05T12:35:21.952Z,100663.88
2023-07-05T12:37:50.811Z,100673.69
2023-07-05T12:40:24.753Z,100685.72
2023-07-05T12:42:53.960Z,100691.19
2023-07-05T12:45:25.346Z,100706.47
2023-07-05T12:47:53.846Z,100695.53
2023-07-05T12:50:24.661Z,100693.06
2023-07-05T12:53:06.810Z,100708.38
2023-07-05T12:55:37.022Z,100706.72
2023-07-05T12:58:05.834Z,100691.41
2023-07-05T13:00:33.973Z,100719.56
2023-07-05T13:03:05.242Z,100707.78
2023-07-05T13:05:34.733Z,100704.22
2023-07-05T13:08:03.059Z,100694.97
2023-07-05T13:10:31.300Z,100704.00
2023-07-05T13:13:00.237Z,100705.06
2023-07-05T13:15:35.138Z,100702.56
2023-07-05T13:18:16.870Z,100705.06
2023-07-05T13:20:46.202Z,100589.00
2023-07-05T13:23:14.170Z,100706.84
2023-07-05T13:25:46.206Z,100641.25
2023-07-05T13:28:21.232Z,100717.66
2023-07-05T13:30:55.604Z,100714.31
2023-07-05T13:33:24.027Z,100712.19
2023-07-05T13:35:53.387Z,100721.34
2023-07-05T13:38:26.326Z,100736.75
2023-07-05T13:40:55.537Z,100745.78
2023-07-05T13:43:23.684Z,100775.56
2023-07-05T13:45:51.685Z,100795.75
2023-07-05T13:48:21.357Z,100801.22
2023-07-05T13:50:49.533Z,100804.78
2023-07-05T13:53:21.213Z,100781.03
2023-07-05T13:55:49.413Z,100789.47
2023-07-05T13:58:18.662Z,100801.22
2023-07-05T14:00:47.245Z,100793.84
2023-07-05T14:03:16.157Z,100778.31
2023-07-05T14:05:44.305Z,100775.84
2023-07-05T14:08:15.995Z,100773.91
2023-07-05T14:10:47.275Z,100761.34
2023-07-05T14:13:16.586Z,100762.19
2023-07-05T14:15:45.395Z,100755.88
2023-07-05T14:18:15.886Z,100767.38
2023-07-05T14:20:44.656Z,100783.75
2023-07-05T14:23:14.003Z,100776.41
2023-07-05T14:25:45.561Z,100785.19
2023-07-05T14:28:14.044Z,100784.94
2023-07-05T14:30:42.221Z,100789.34
2023-07-05T14:33:11.276Z,100787.44
2023-07-05T14:35:39.452Z,100800.03
2023-07-05T14:38:09.429Z,100796.47
2023-07-05T14:40:37.413Z,100796.47
2023-07-05T14:43:07.011Z,100781.97
2023-07-05T14:45:35.760Z,100788.28
2023-07-05T14:48:04.498Z,100792.91
2023-07-05T14:50:33.625Z,100784.94
2023-07-05T14:53:03.252Z,100773.91
2023-07-05T14:55:32.122Z,100777.56
2023-07-05T14:58:00.584Z,100783.03
2023-07-05T15:00:32.878Z,100786.88
2023-07-05T15:03:03.426Z,100783.03
2023-07-05T15:05:31.415Z,100792.06
2023-07-05T15:07:59.402Z,100780.19
2023-07-05T15:10:27.369Z,100783.88
2023-07-05T15:12:55.312Z,100786.88
2023-07-05T15:15:24.938Z,100784.13
2023-07-05T15:17:55.581Z,100789.34
2023-07-05T15:20:23.662Z,100781.13
2023-07-05T15:22:51.823Z,100789.09
2023-07-05T15:25:20.717Z,100795.63
2023-07-05T15:27:49.570Z,100789.34
2023-07-05T15:30:17.869Z,100792.91
2023-07-05T15:32:45.882Z,100793.13
2023-07-05T15:35:15.950Z,100794.78
2023-07-05T15:37:43.958Z,100797.31
2023-07-05T15:40:12.572Z,100799.78
2023-07-05T15:42:40.726Z,100796.69
2023-07-05T15:45:11.814Z,100789.00
2023-07-05T15:47:40.105Z,100800.88
2023-07-05T15:50:09.633Z,100800.03
2023-07-05T15:52:39.072Z,100809.06
2023-07-05T15:55:08.079Z,100807.38
2023-07-05T15:57:36.081Z,100813.69
2023-07-05T16:00:05.894Z,100814.75
2023-07-05T16:02:41.796Z,100817.47
2023-07-05T16:05:10.570Z,100815.25
2023-07-05T16:07:39.965Z,100823.78
2023-07-05T16:10:09.120Z,100826.50
2023-07-05T16:12:37.063Z,100827.34
2023-07-05T16:15:05.691Z,100833.03
2023-07-05T16:17:33.603Z,100834.69
2023-07-05T16:20:01.652Z,100825.66
2023-07-05T16:22:29.693Z,100845.41
2023-07-05T16:24:59.369Z,100839.09
2023-07-05T16:27:27.339Z,100856.31
2023-07-05T16:29:55.343Z,100854.44
2023-07-05T16:32:24.192Z,100859.06
2023-07-05T16:34:52.281Z,100855.25
2023-07-05T16:37:20.268Z,100862.63
2023-07-05T16:39:48.479Z,100876.28
2023-07-05T16:42:17.906Z,100873.78
2023-07-05T16:44:45.921Z,100885.53
2023-07-05T16:47:13.911Z,100892.66
2023-07-05T16:49:42.058Z,100893.50
2023-07-05T16:52:10.189Z,100895.38
2023-07-05T16:54:38.140Z,100891.81
2023-07-05T16:57:07.092Z,100891.00
2023-07-05T16:59:36.857Z,100899.19
2023-07-05T17:02:05.896Z,100900.03
2023-07-05T17:04:34.985Z,100892.88
2023-07-05T17:07:03.978Z,100893.94
2023-07-05T17:09:32.066Z,100897.50
2023-07-05T17:12:00.086Z,100895.00
2023-07-05T17:14:28.313Z,100895.84
2023-07-05T17:16:57.748Z,100898.56
2023-07-05T17:19:25.789Z,100900.47
2023-07-05T17:21:53.740Z,100895.84
2023-07-05T17:24:23.692Z,100897.75
2023-07-05T17:26:51.655Z,100893.38
2023-07-05T17:29:20.165Z,100888.72
2023-07-05T17:31:48.159Z,100894.19
2023-07-05T17:34:19.690Z,100890.66
2023-07-05T17:36:47.615Z,100895.84
2023-07-05T17:39:15.527Z,100891.22
2023-07-05T17:41:43.771Z,100896.69
2023-07-05T17:44:12.026Z,100899.41
2023-07-05T17:46:42.747Z,100895.84
2023-07-05T17:49:11.601Z,100898.56
2023-07-05T17:51:41.694Z,100897.75
2023-07-05T17:54:11.438Z,100897.75
2023-07-05T17:56:40.122Z,100902.38
2023-07-05T17:59:08.355Z,100911.41
2023-07-05T18:01:36.801Z,100907.84
2023-07-05T18:04:04.830Z,100908.66
2023-07-05T18:06:33.662Z,100917.69
2023-07-05T18:09:03.588Z,100916.03
2023-07-05T18:11:31.610Z,100919.59
2023-07-05T18:13:59.693Z,100911.41
2023-07-05T18:16:27.914Z,100914.13
2023-07-05T18:18:55.925Z,100917.69
2023-07-05T18:21:26.708Z,100908.66
2023-07-05T18:23:55.186Z,100912.22
2023-07-05T18:26:24.723Z,100917.47
2023-07-05T18:28:53.997Z,100919.97
2023-07-05T18:31:22.460Z,100917.25
2023-07-05T18:33:51.597Z,100918.91
2023-07-05T18:36:21.932Z,100925.19
2023-07-05T18:38:51.849Z,100922.44
2023-07-05T18:41:21.204Z,100926.00
2023-07-05T18:43:50.848Z,100927.69
2023-07-05T18:46:18.883Z,100933.97
2023-07-05T18:48:47.745Z,100932.09
2023-07-05T18:51:15.996Z,100933.75
2023-07-05T18:53:44.494Z,100936.47
2023-07-05T18:56:13.225Z,100932.09
2023-07-05T18:58:41.528Z,100941.13
2023-07-05T19:01:14.064Z,100938.38
2023-07-05T19:03:43.502Z,100943.84
2023-07-05T19:06:15.260Z,100948.25
2023-07-05T19:08:43.344Z,100950.13
2023-07-05T19:11:12.357Z,100949.31
2023-07-05T19:13:40.782Z,100948.25
2023-07-05T19:16:10.533Z,100941.94
2023-07-05T19:18:38.804Z,100941.13
2023-07-05T19:21:06.980Z,100946.56
2023-07-05T19:23:35.857Z,100941.34
2023-07-05T19:26:04.929Z,100945.75
2023-07-05T19:28:34.094Z,100952.03
2023-07-05T19:31:07.743Z,100959.28
2023-07-05T19:33:37.597Z,100966.16
2023-07-05T19:36:06.146Z,100965.34
2023-07-05T19:38:34.498Z,100960.69
2023-07-05T19:41:02.480Z,100977.91
2023-07-05T19:43:30.598Z,100969.97
2023-07-05T19:46:02.298Z,100985.25
2023-07-05T19:48:30.546Z,100987.41
2023-07-05T19:51:02.279Z,100998.13
2023-07-05T19:53:30.690Z,101002.75
2023-07-05T19:55:59.073Z,101007.38
2023-07-05T19:58:28.186Z,101013.91
2023-07-05T20:00:56.131Z,101052.13
2023-07-05T20:03:24.373Z,101070.19
2023-07-05T20:05:52.525Z,101081.13
2023-07-05T20:08:21.855Z,101052.44
2023-07-05T20:10:49.809Z,101067.69
2023-07-05T20:13:18.326Z,101073.97
2023-07-05T20:15:56.863Z,101076.72
2023-07-05T20:18:25.044Z,101072.31
2023-07-05T20:20:56.706Z,101067.69
2023-07-05T20:23:30.291Z,101056.75
2023-07-05T20:25:58.495Z,101071.25
2023-07-05T20:28:28.721Z,101061.38
2023-07-05T20:30:58.306Z,101060.56
2023-07-05T20:33:27.249Z,101056.75
2023-07-05T20:35:58.219Z,101058.88
2023-07-05T20:38:26.843Z,101059.50
2023-07-05T20:40:56.455Z,101066.84
2023-07-05T20:43:24.802Z,101072.31
2023-07-05T20:45:56.358Z,101066.00
2023-07-05T20:48:24.717Z,101058.66
2023-07-05T20:51:00.618Z,101061.38
2023-07-05T20:53:28.805Z,101074.22
2023-07-05T20:55:59.336Z,101080.72
2023-07-05T20:58:29.702Z,101082.41
2023-07-05T21:00:58.208Z,101084.28
2023-07-05T21:03:26.430Z,101094.38
2023-07-05T21:05:54.710Z,101096.28
2023-07-05T21:08:23.077Z,101097.13
2023-07-05T21:10:52.822Z,101084.28
2023-07-05T21:13:23.421Z,101073.63
2023-07-05T21:15:51.886Z,101070.06
2023-07-05T21:18:19.885Z,101079.88
2023-07-05T21:20:47.866Z,101082.63
2023-07-05T21:23:16.751Z,101082.63
2023-07-05T21:25:48.403Z,101082.03
2023-07-05T21:28:16.696Z,101092.13
2023-07-05T21:30:46.949Z,101084.56
2023-07-05T21:33:16.629Z,101091.06
2023-07-05T21:35:44.552Z,101091.06
2023-07-05T21:38:13.399Z,101094.03
2023-07-05T21:40:41.346Z,101102.22
2023-07-05T21:43:09.462Z,101102.22
2023-07-05T21:45:37.478Z,101095.09
2023-07-05T21:48:07.474Z,101102.22
2023-07-05T21:50:35.528Z,101103.28
2023-07-05T21:53:03.458Z,101103.06
2023-07-05T21:55:31.549Z,101104.94
2023-07-05T21:57:59.878Z,101096.75
2023-07-05T22:00:27.901Z,101101.38
2023-07-05T22:02:58.077Z,101096.13
2023-07-05T22:05:30.900Z,101103.06
2023-07-05T22:07:58.972Z,101108.50
2023-07-05T22:10:27.715Z,101109.56
2023-07-05T22:12:55.607Z,101109.78
2023-07-05T22:15:24.307Z,101114.19
2023-07-05T22:17:54.905Z,101116.09
2023-07-05T22:20:25.111Z,101116.09
2023-07-05T22:22:55.127Z,101117.19
2023-07-05T22:25:23.219Z,101120.97
2023-07-05T22:27:51.493Z,101123.69
2023-07-05T22:30:19.501Z,101124.75
2023-07-05T22:32:48.406Z,101125.59
2023-07-05T22:35:16.972Z,101128.53
2023-07-05T22:37:45.234Z,101133.78
2023-07-05T22:40:17.632Z,101138.63
2023-07-05T22:42:45.551Z,101136.75
2023-07-05T22:45:14.268Z,101136.75
2023-07-05T22:47:42.453Z,101138.88
2023-07-05T22:50:11.768Z,101139.47
2023-07-05T22:52:39.761Z,101143.25
2023-07-05T22:55:08.962Z,101136.16
2023-07-05T22:57:38.272Z,101134.47
2023-07-05T23:00:13.410Z,101137.22
2023-07-05T23:02:41.533Z,101131.75
2023-07-05T23:05:10.245Z,101141.63
2023-07-05T23:07:38.326Z,101145.41
2023-07-05T23:10:07.037Z,101149.81
2023-07-05T23:12:35.067Z,101147.31
2023-07-05T23:15:08.786Z,101151.69
2023-07-05T23:17:36.941Z,101143.94
2023-07-05T23:20:09.700Z,101150.88
2023-07-05T23:22:37.688Z,101153.59
2023-07-05T23:25:05.982Z,101154.44
2023-07-05T23:27:34.803Z,101158.22
2023-07-05T23:30:05.156Z,101153.59
2023-07-05T23:32:33.133Z,101167.25
2023-07-05T23:35:01.130Z,101160.94
2023-07-05T23:37:29.814Z,101162.84
2023-07-05T23:39:57.770Z,101164.75
2023-07-05T23:42:25.855Z,101166.63
2023-07-05T23:44:53.934Z,101166.63
2023-07-05T23:47:24.264Z,101160.34
2023-07-05T23:49:52.871Z,101167.69
2023-07-05T23:52:25.683Z,101152.16
2023-07-05T23:54:54.423Z,101157.81
2023-07-05T23:57:23.604Z,101156.19
2023-07-05T23:59:51.564Z,101157.25
